Time;durP1;ratioP1;P1;durP2;ratioP2;P2;SDS_P1;SDS_P2;PMS_P1;PMS_P2;Temp;Humidity;BMP_temperature;BMP_pressure;BME280_temperature;BME280_humidity;BME280_pressure;Samples;Min_cycle;Max_cycle;Signal;HPM_P1;HPM_P2
2022/10/13 00:02:13;;;;;;;20.40;13.05;;;9.80;99.90;;;;;;4851934;29;20144;-82
2022/10/13 00:04:40;;;;;;;25.05;14.27;;;9.80;99.90;;;;;;4834156;29;20055;-82
2022/10/13 00:07:05;;;;;;;24.00;14.48;;;9.70;99.90;;;;;;4848571;29;20053;-82
2022/10/13 00:09:31;;;;;;;23.42;14.20;;;9.80;99.90;;;;;;4849054;29;20045;-82
2022/10/13 00:11:57;;;;;;;23.75;13.52;;;9.80;99.90;;;;;;4833772;29;20041;-82
2022/10/13 00:14:23;;;;;;;22.23;13.85;;;9.80;99.90;;;;;;4835243;29;20045;-82
2022/10/13 00:16:48;;;;;;;21.90;13.57;;;9.80;99.90;;;;;;4848357;29;20048;-82
2022/10/13 00:19:14;;;;;;;23.10;13.93;;;9.90;99.90;;;;;;4838649;29;20249;-82
2022/10/13 00:21:39;;;;;;;23.63;14.13;;;9.80;99.90;;;;;;4847806;29;20136;-82
2022/10/13 00:24:11;;;;;;;26.02;14.18;;;9.90;99.90;;;;;;4836066;29;20464;-82
2022/10/13 00:26:37;;;;;;;26.58;14.23;;;9.90;99.90;;;;;;4850177;29;20053;-82
2022/10/13 00:29:03;;;;;;;24.13;14.60;;;9.90;99.90;;;;;;4858000;29;20052;-82
2022/10/13 00:31:30;;;;;;;24.33;13.90;;;9.90;99.90;;;;;;4817066;29;20029;-82
2022/10/13 00:33:58;;;;;;;23.13;13.65;;;9.90;99.90;;;;;;4841454;29;20072;-82
2022/10/13 00:36:24;;;;;;;21.25;13.50;;;10.00;99.90;;;;;;4833011;29;20041;-82
2022/10/13 00:38:51;;;;;;;28.70;14.82;;;9.90;99.90;;;;;;4833766;29;20048;-82
2022/10/13 00:41:16;;;;;;;23.20;13.82;;;10.00;99.90;;;;;;4833251;29;20049;-82
2022/10/13 00:43:59;;;;;;;23.20;14.30;;;9.90;99.90;;;;;;4831159;29;20046;-82
2022/10/13 00:46:33;;;;;;;24.30;14.55;;;10.00;99.90;;;;;;4831199;29;20422;-82
2022/10/13 00:49:12;;;;;;;21.08;13.38;;;10.00;99.90;;;;;;4837455;29;20304;-82
2022/10/13 00:51:43;;;;;;;23.38;14.63;;;10.00;99.90;;;;;;4832857;29;20164;-82
2022/10/13 00:54:12;;;;;;;24.33;14.18;;;9.90;99.90;;;;;;4832132;29;20048;-82
2022/10/13 00:56:41;;;;;;;21.35;14.43;;;9.90;99.90;;;;;;4847848;29;20046;-83
2022/10/13 00:59:21;;;;;;;26.30;14.73;;;9.90;99.90;;;;;;4849396;29;20185;-82
2022/10/13 01:01:51;;;;;;;28.85;15.35;;;10.00;99.90;;;;;;4848167;29;20318;-82
2022/10/13 01:04:18;;;;;;;24.45;15.40;;;9.90;99.90;;;;;;4834378;29;20093;-82
2022/10/13 01:06:44;;;;;;;25.73;15.80;;;10.00;99.90;;;;;;4819867;29;20076;-82
2022/10/13 01:09:10;;;;;;;26.75;14.93;;;9.90;99.90;;;;;;4846716;29;20137;-82
2022/10/13 01:12:03;;;;;;;27.58;14.82;;;10.00;99.90;;;;;;4850107;29;20121;-82
2022/10/13 01:14:37;;;;;;;23.02;13.73;;;10.00;99.90;;;;;;4863801;29;20041;-82
2022/10/13 01:17:25;;;;;;;25.35;14.77;;;10.00;99.90;;;;;;4830994;29;20041;-82
2022/10/13 01:20:29;;;;;;;23.27;14.45;;;10.00;99.90;;;;;;4819930;29;20049;-82
2022/10/13 01:23:04;;;;;;;25.55;15.70;;;10.00;99.90;;;;;;4829069;29;20045;-82
2022/10/13 01:25:41;;;;;;;25.90;14.75;;;10.00;99.90;;;;;;4814123;29;20042;-82
2022/10/13 01:28:19;;;;;;;27.75;14.98;;;9.90;99.90;;;;;;4823966;29;20128;-82
2022/10/13 01:30:55;;;;;;;24.73;14.82;;;9.90;99.90;;;;;;4838406;29;20513;-82
2022/10/13 01:33:40;;;;;;;27.50;15.70;;;10.00;99.90;;;;;;4845484;29;20402;-82
2022/10/13 01:36:35;;;;;;;30.20;15.77;;;10.00;99.90;;;;;;4861860;29;20201;-82
2022/10/13 01:39:12;;;;;;;21.52;14.55;;;10.00;99.90;;;;;;4866056;29;20055;-82
2022/10/13 01:41:41;;;;;;;25.70;14.80;;;10.00;99.90;;;;;;4859456;29;20045;-82
2022/10/13 01:44:16;;;;;;;24.05;15.27;;;9.90;99.90;;;;;;4835294;29;20048;-82
2022/10/13 01:46:44;;;;;;;23.35;14.60;;;10.00;99.90;;;;;;4829715;29;20040;-82
2022/10/13 01:49:13;;;;;;;26.40;14.68;;;9.90;99.90;;;;;;4834135;29;20060;-82
2022/10/13 01:51:41;;;;;;;29.17;15.45;;;9.80;99.90;;;;;;4835101;29;20045;-83
2022/10/13 01:54:06;;;;;;;27.75;15.82;;;9.90;99.90;;;;;;4847412;29;20112;-82
2022/10/13 01:56:35;;;;;;;27.90;15.25;;;9.90;99.90;;;;;;4834864;29;20419;-82
2022/10/13 01:59:06;;;;;;;22.92;15.73;;;9.80;99.90;;;;;;4848956;29;20107;-82
2022/10/13 02:01:40;;;;;;;28.38;15.02;;;9.90;99.90;;;;;;4851945;29;20049;-82
2022/10/13 02:04:22;;;;;;;30.60;16.00;;;9.90;99.90;;;;;;4855808;29;20056;-82
2022/10/13 02:06:56;;;;;;;27.45;15.50;;;9.90;99.90;;;;;;4857611;29;20064;-82
2022/10/13 02:09:47;;;;;;;25.48;15.10;;;9.80;99.90;;;;;;4858534;29;20174;-82
2022/10/13 02:12:32;;;;;;;27.13;15.32;;;9.90;99.90;;;;;;4830643;29;20117;-83
2022/10/13 02:14:59;;;;;;;26.13;15.02;;;9.90;99.90;;;;;;4827953;29;20082;-82
2022/10/13 02:17:30;;;;;;;21.75;14.80;;;9.80;99.90;;;;;;4854807;29;20054;-82
2022/10/13 02:19:59;;;;;;;22.98;14.77;;;9.90;99.90;;;;;;4822466;29;20133;-82
2022/10/13 02:22:31;;;;;;;24.75;15.13;;;9.90;99.90;;;;;;4842609;29;20474;-82
2022/10/13 02:24:57;;;;;;;27.27;15.07;;;9.80;99.90;;;;;;4840954;29;20546;-82
2022/10/13 02:27:23;;;;;;;21.73;14.85;;;9.90;99.90;;;;;;4829369;29;20050;-82
2022/10/13 02:29:58;;;;;;;23.38;16.10;;;9.80;99.90;;;;;;4840422;29;20049;-82
2022/10/13 02:32:23;;;;;;;27.33;15.48;;;9.80;99.90;;;;;;4858633;29;20471;-82
2022/10/13 02:34:49;;;;;;;28.08;16.48;;;9.80;99.90;;;;;;4832472;29;20049;-83
2022/10/13 02:37:15;;;;;;;24.73;15.05;;;9.80;99.90;;;;;;4830559;29;20042;-82
2022/10/13 02:39:41;;;;;;;24.75;15.27;;;9.80;99.90;;;;;;4859824;29;20073;-82
2022/10/13 02:42:07;;;;;;;24.92;15.18;;;9.80;99.90;;;;;;4827012;29;20191;-82
2022/10/13 02:44:33;;;;;;;28.52;15.88;;;9.80;99.90;;;;;;4827540;29;20415;-83
2022/10/13 02:46:59;;;;;;;29.67;16.08;;;9.80;99.90;;;;;;4850796;29;20038;-82
2022/10/13 02:49:24;;;;;;;29.50;15.40;;;9.80;99.90;;;;;;4836424;29;20046;-82
2022/10/13 02:51:52;;;;;;;25.33;15.45;;;9.90;99.90;;;;;;4851522;29;20187;-82
2022/10/13 02:54:17;;;;;;;25.25;15.68;;;9.80;99.90;;;;;;4831826;29;20406;-82
2022/10/13 02:56:43;;;;;;;25.88;16.25;;;9.80;99.90;;;;;;4831362;29;20422;-83
2022/10/13 02:59:09;;;;;;;22.13;16.08;;;9.90;99.90;;;;;;4831928;29;20478;-83
2022/10/13 03:01:40;;;;;;;28.13;16.50;;;9.80;99.90;;;;;;4831771;29;20087;-82
2022/10/13 03:04:06;;;;;;;29.65;15.93;;;9.80;99.90;;;;;;4830931;29;20046;-82
2022/10/13 03:06:32;;;;;;;28.00;16.25;;;9.90;99.90;;;;;;4846044;29;20042;-83
2022/10/13 03:08:58;;;;;;;20.85;15.20;;;10.00;99.90;;;;;;4833895;29;20045;-83
2022/10/13 03:11:24;;;;;;;22.90;15.85;;;10.00;99.90;;;;;;4842521;29;20098;-83
2022/10/13 03:13:49;;;;;;;27.23;15.95;;;10.00;99.90;;;;;;4831095;29;20046;-84
2022/10/13 03:16:15;;;;;;;28.30;16.30;;;10.00;99.90;;;;;;4853240;29;20423;-84
2022/10/13 03:18:41;;;;;;;24.67;15.68;;;10.00;99.90;;;;;;4863027;29;20049;-84
2022/10/13 03:21:09;;;;;;;26.02;16.13;;;10.10;99.90;;;;;;4831020;29;20044;-84
2022/10/13 03:23:34;;;;;;;27.58;16.15;;;10.00;99.90;;;;;;4846612;29;20061;-84
2022/10/13 03:26:00;;;;;;;23.92;16.08;;;10.10;99.90;;;;;;4845300;29;20077;-84
2022/10/13 03:28:26;;;;;;;26.63;17.05;;;10.10;99.90;;;;;;4852150;29;20046;-83
2022/10/13 03:31:03;;;;;;;27.80;16.67;;;10.10;99.90;;;;;;4824984;29;20516;-83
2022/10/13 03:33:29;;;;;;;27.92;17.60;;;10.00;99.90;;;;;;4817133;29;20042;-84
2022/10/13 03:36:06;;;;;;;26.65;16.55;;;10.10;99.90;;;;;;4831857;29;20481;-83
2022/10/13 03:38:33;;;;;;;28.05;17.10;;;10.20;99.90;;;;;;4835097;29;20049;-84
2022/10/13 03:41:10;;;;;;;33.15;16.83;;;10.20;99.90;;;;;;4843194;29;20046;-83
2022/10/13 03:43:37;;;;;;;31.88;17.42;;;10.10;99.90;;;;;;4833420;29;20093;-84
2022/10/13 03:46:04;;;;;;;23.77;16.67;;;10.20;99.90;;;;;;4844356;29;20098;-84
2022/10/13 03:48:31;;;;;;;26.73;17.40;;;10.20;99.90;;;;;;4827866;29;20057;-84
2022/10/13 03:51:07;;;;;;;26.80;17.08;;;10.30;99.90;;;;;;4833290;29;20498;-84
2022/10/13 03:53:33;;;;;;;29.42;16.30;;;10.30;99.90;;;;;;4827790;29;20124;-84
2022/10/13 03:55:59;;;;;;;27.83;17.40;;;10.30;99.90;;;;;;4844675;29;20044;-84
2022/10/13 03:58:27;;;;;;;34.38;18.05;;;10.30;99.90;;;;;;4846759;29;20486;-84
2022/10/13 04:00:53;;;;;;;29.17;18.55;;;10.20;99.90;;;;;;4842390;29;20523;-84
2022/10/13 04:03:19;;;;;;;29.80;17.80;;;10.20;99.90;;;;;;4859177;29;20435;-84
2022/10/13 04:05:45;;;;;;;28.42;18.30;;;10.30;99.90;;;;;;4847150;29;20299;-85
2022/10/13 04:08:12;;;;;;;30.17;18.63;;;10.30;99.90;;;;;;4829994;29;20582;-84
2022/10/13 04:10:38;;;;;;;28.35;17.95;;;10.30;99.90;;;;;;4831904;29;20137;-85
2022/10/13 04:13:04;;;;;;;29.73;18.73;;;10.30;99.90;;;;;;4830761;29;20052;-84
2022/10/13 04:15:34;;;;;;;29.45;17.77;;;10.30;99.90;;;;;;4831129;29;20202;-85
2022/10/13 04:18:00;;;;;;;29.10;17.52;;;10.20;99.90;;;;;;4830874;29;20448;-84
2022/10/13 04:20:26;;;;;;;29.55;18.85;;;10.30;99.90;;;;;;4846974;29;20110;-84
2022/10/13 04:22:52;;;;;;;29.17;18.80;;;10.20;99.90;;;;;;4830763;29;20053;-84
2022/10/13 04:25:17;;;;;;;30.38;19.27;;;10.30;99.90;;;;;;4846015;29;20146;-84
2022/10/13 04:27:47;;;;;;;34.58;19.20;;;10.30;99.90;;;;;;4845618;29;20067;-84
2022/10/13 04:30:13;;;;;;;29.75;19.20;;;10.40;99.90;;;;;;4837812;29;20406;-84
2022/10/13 04:32:39;;;;;;;28.23;19.30;;;10.40;99.90;;;;;;4830330;29;20090;-84
2022/10/13 04:35:05;;;;;;;32.53;19.88;;;10.20;99.90;;;;;;4859005;29;20110;-84
2022/10/13 04:37:31;;;;;;;33.20;20.13;;;10.30;99.90;;;;;;4814400;29;20769;-84
2022/10/13 04:39:56;;;;;;;27.85;18.75;;;10.30;99.90;;;;;;4840566;29;20116;-85
2022/10/13 04:42:22;;;;;;;31.55;19.52;;;10.40;99.90;;;;;;4844237;29;20052;-84
2022/10/13 04:44:51;;;;;;;33.67;19.88;;;10.30;99.90;;;;;;4857051;29;20057;-84
2022/10/13 04:47:16;;;;;;;34.95;20.02;;;10.40;99.90;;;;;;4831322;29;20696;-84
2022/10/13 04:49:42;;;;;;;31.85;19.27;;;10.30;99.90;;;;;;4845910;29;20125;-84
2022/10/13 04:52:08;;;;;;;30.67;20.02;;;10.30;99.90;;;;;;4830230;29;20140;-84
2022/10/13 04:54:35;;;;;;;35.58;20.13;;;10.30;99.90;;;;;;4829276;29;20050;-84
2022/10/13 04:57:01;;;;;;;31.95;19.60;;;10.40;99.90;;;;;;4828146;29;20518;-85
2022/10/13 04:59:27;;;;;;;33.17;20.55;;;10.30;99.90;;;;;;4835088;29;20045;-84
2022/10/13 05:01:55;;;;;;;32.88;19.90;;;10.40;99.90;;;;;;4842614;29;20058;-85
2022/10/13 05:04:21;;;;;;;38.53;22.40;;;10.30;99.90;;;;;;4847190;29;20415;-85
2022/10/13 05:06:47;;;;;;;33.45;20.02;;;10.40;99.90;;;;;;4826016;29;20212;-84
2022/10/13 05:09:17;;;;;;;33.42;20.92;;;10.50;99.90;;;;;;4847195;29;20056;-84
2022/10/13 05:11:42;;;;;;;30.40;19.38;;;10.40;99.90;;;;;;4839986;29;20034;-84
2022/10/13 05:14:09;;;;;;;34.58;21.30;;;10.50;99.90;;;;;;4846366;29;20110;-85
2022/10/13 05:16:35;;;;;;;32.30;21.45;;;10.40;99.90;;;;;;4828157;29;20074;-84
2022/10/13 05:19:01;;;;;;;31.52;20.95;;;10.50;99.90;;;;;;4860206;29;20099;-85
2022/10/13 05:21:27;;;;;;;36.15;22.02;;;10.50;99.90;;;;;;4828432;29;20042;-85
2022/10/13 05:23:55;;;;;;;31.90;22.05;;;10.50;99.90;;;;;;4826527;29;20042;-84
2022/10/13 05:26:26;;;;;;;43.50;24.85;;;10.60;99.90;;;;;;4841677;29;20046;-85
2022/10/13 05:28:52;;;;;;;44.83;23.73;;;10.50;99.90;;;;;;4802770;29;20462;-85
2022/10/13 05:31:20;;;;;;;35.95;22.52;;;10.50;99.90;;;;;;4834810;29;20030;-85
2022/10/13 05:33:47;;;;;;;35.90;22.35;;;10.60;99.90;;;;;;4843113;29;20049;-85
2022/10/13 05:36:18;;;;;;;39.58;24.05;;;10.60;99.90;;;;;;4831611;29;20499;-86
2022/10/13 05:38:44;;;;;;;39.58;23.40;;;10.60;99.90;;;;;;4814378;29;20064;-85
2022/10/13 05:41:13;;;;;;;33.10;22.50;;;10.60;99.90;;;;;;4845406;29;20056;-86
2022/10/13 05:43:40;;;;;;;35.83;22.35;;;10.70;99.90;;;;;;4841344;29;20556;-85
2022/10/13 05:46:07;;;;;;;40.20;22.58;;;10.70;99.90;;;;;;4823343;29;20053;-86
2022/10/13 05:48:36;;;;;;;36.90;21.75;;;10.80;99.90;;;;;;4808739;29;20045;-86
2022/10/13 05:51:23;;;;;;;42.97;22.13;;;10.80;99.90;;;;;;4828606;29;20501;-86
2022/10/13 05:53:53;;;;;;;35.85;22.48;;;10.70;99.90;;;;;;4844779;29;20045;-85
2022/10/13 05:56:24;;;;;;;31.25;21.40;;;10.70;99.90;;;;;;4832004;29;20267;-84
2022/10/13 05:58:54;;;;;;;37.28;22.40;;;10.80;99.90;;;;;;4829053;29;20864;-85
2022/10/13 06:01:23;;;;;;;44.33;22.85;;;10.70;99.90;;;;;;4856406;29;20062;-85
2022/10/13 06:03:52;;;;;;;34.40;21.40;;;10.80;99.90;;;;;;4832322;29;20044;-85
2022/10/13 06:06:18;;;;;;;38.97;22.00;;;10.70;99.90;;;;;;4858477;29;20044;-85
2022/10/13 06:08:44;;;;;;;36.78;22.98;;;10.90;99.90;;;;;;4830086;29;20046;-84
2022/10/13 06:11:09;;;;;;;34.72;21.48;;;10.80;99.90;;;;;;4841190;29;20088;-85
2022/10/13 06:13:35;;;;;;;38.78;23.08;;;10.80;99.90;;;;;;4829691;29;20168;-84
2022/10/13 06:16:01;;;;;;;36.88;23.05;;;11.00;99.90;;;;;;4840252;29;20045;-84
2022/10/13 06:18:26;;;;;;;42.03;24.52;;;11.00;99.90;;;;;;4826405;29;20064;-84
2022/10/13 06:20:52;;;;;;;40.50;25.42;;;10.80;99.90;;;;;;4833185;29;20429;-84
2022/10/13 06:23:18;;;;;;;38.80;23.20;;;11.10;99.90;;;;;;4833890;29;20518;-85
2022/10/13 06:25:51;;;;;;;35.85;21.73;;;11.00;99.90;;;;;;4859524;29;20038;-84
2022/10/13 06:28:17;;;;;;;38.42;22.55;;;11.00;99.90;;;;;;4827218;29;20053;-84
2022/10/13 06:30:48;;;;;;;41.15;23.95;;;11.10;99.90;;;;;;4828353;29;20042;-84
2022/10/13 06:33:14;;;;;;;37.72;23.08;;;11.10;99.90;;;;;;4861295;29;20045;-84
2022/10/13 06:35:39;;;;;;;36.83;23.17;;;11.10;99.90;;;;;;4805703;29;20502;-84
2022/10/13 06:38:05;;;;;;;40.67;24.02;;;11.10;99.90;;;;;;4846738;29;20411;-84
2022/10/13 06:40:31;;;;;;;34.33;22.63;;;11.30;99.90;;;;;;4848927;29;20045;-84
2022/10/13 06:42:57;;;;;;;37.35;23.67;;;11.30;99.90;;;;;;4824648;29;20466;-84
2022/10/13 06:45:22;;;;;;;36.53;22.13;;;11.40;99.90;;;;;;4814773;29;20041;-85
2022/10/13 06:47:48;;;;;;;35.85;21.50;;;11.40;99.90;;;;;;4832192;29;20121;-84
2022/10/13 06:50:14;;;;;;;34.35;22.70;;;11.50;99.90;;;;;;4848486;29;20107;-84
2022/10/13 06:52:39;;;;;;;34.13;22.23;;;11.50;99.90;;;;;;4830587;29;20129;-84
2022/10/13 06:55:05;;;;;;;35.88;22.23;;;11.60;99.90;;;;;;4862176;29;20050;-84
2022/10/13 06:57:31;;;;;;;36.92;21.05;;;11.40;99.90;;;;;;4830693;29;20476;-84
2022/10/13 06:59:57;;;;;;;38.97;22.65;;;11.60;99.90;;;;;;4845826;29;20045;-85
2022/10/13 07:02:23;;;;;;;33.38;20.80;;;11.60;99.90;;;;;;4861234;29;20073;-84
2022/10/13 07:04:51;;;;;;;31.85;21.40;;;11.60;99.90;;;;;;4830379;29;20640;-84
2022/10/13 07:07:17;;;;;;;33.00;21.02;;;11.70;99.90;;;;;;4829202;29;20058;-85
2022/10/13 07:09:43;;;;;;;32.13;21.23;;;11.80;99.90;;;;;;4837804;29;20038;-84
2022/10/13 07:12:08;;;;;;;33.05;20.63;;;11.70;99.90;;;;;;4861278;29;20046;-84
2022/10/13 07:14:34;;;;;;;34.20;21.08;;;11.80;99.90;;;;;;4838437;29;20046;-84
2022/10/13 07:17:00;;;;;;;35.38;21.15;;;11.70;99.90;;;;;;4842579;29;20045;-85
2022/10/13 07:19:25;;;;;;;33.35;22.13;;;11.90;99.90;;;;;;4843609;29;20073;-84
2022/10/13 07:21:51;;;;;;;31.67;20.42;;;11.80;99.90;;;;;;4829831;29;20099;-84
2022/10/13 07:24:17;;;;;;;39.13;24.38;;;11.80;99.90;;;;;;4832450;29;20498;-85
2022/10/13 07:26:42;;;;;;;40.15;25.95;;;11.80;99.90;;;;;;4860739;29;20034;-84
2022/10/13 07:29:08;;;;;;;40.83;24.40;;;12.00;99.90;;;;;;4846635;29;20097;-85
2022/10/13 07:31:34;;;;;;;34.58;22.65;;;12.00;99.90;;;;;;4825854;29;20320;-84
2022/10/13 07:34:00;;;;;;;31.38;21.13;;;12.00;99.90;;;;;;4844855;29;20129;-84
2022/10/13 07:36:26;;;;;;;31.92;21.27;;;12.10;99.90;;;;;;4828717;29;20059;-85
2022/10/13 07:38:52;;;;;;;34.00;21.13;;;12.00;99.90;;;;;;4817206;29;20571;-85
2022/10/13 07:41:18;;;;;;;35.47;21.27;;;12.10;99.90;;;;;;4831940;29;20093;-85
2022/10/13 07:43:44;;;;;;;30.27;21.10;;;12.40;99.90;;;;;;4847424;29;20152;-85
2022/10/13 07:46:13;;;;;;;33.25;21.00;;;12.50;99.90;;;;;;4837469;29;20331;-86
2022/10/13 07:48:39;;;;;;;29.10;19.75;;;12.50;99.90;;;;;;4837949;29;20341;-84
2022/10/13 07:51:07;;;;;;;34.95;21.13;;;12.60;99.90;;;;;;4826736;29;20050;-85
2022/10/13 07:53:34;;;;;;;30.88;20.98;;;12.40;99.90;;;;;;4862274;29;20061;-85
2022/10/13 07:56:04;;;;;;;29.95;20.33;;;12.40;99.90;;;;;;4845534;29;20050;-85
2022/10/13 07:58:30;;;;;;;31.40;20.27;;;12.40;99.90;;;;;;4834544;29;20052;-85
2022/10/13 08:01:00;;;;;;;30.35;19.85;;;12.70;99.90;;;;;;4833460;29;20061;-85
2022/10/13 08:03:27;;;;;;;30.95;19.77;;;12.50;99.90;;;;;;4815756;29;20073;-85
2022/10/13 08:05:53;;;;;;;32.25;19.75;;;12.70;99.90;;;;;;4841154;29;20042;-84
2022/10/13 08:08:20;;;;;;;28.70;19.15;;;12.80;99.90;;;;;;4844280;29;20045;-85
2022/10/13 08:10:48;;;;;;;32.75;18.67;;;12.70;99.90;;;;;;4843200;29;20073;-86
2022/10/13 08:13:14;;;;;;;30.20;18.00;;;12.80;99.90;;;;;;4844607;29;20612;-85
2022/10/13 08:15:42;;;;;;;27.10;18.25;;;13.00;99.90;;;;;;4856543;29;20133;-85
2022/10/13 08:18:11;;;;;;;33.17;18.40;;;13.10;99.90;;;;;;4833541;29;20571;-85
2022/10/13 08:20:44;;;;;;;26.92;18.73;;;13.10;99.90;;;;;;4831069;29;20062;-84
2022/10/13 08:23:19;;;;;;;26.20;18.42;;;13.10;99.90;;;;;;4847022;29;20073;-85
2022/10/13 08:25:45;;;;;;;;;;;13.30;99.90;;;;;;4839467;29;20037;-85
2022/10/13 08:28:27;;;;;;;25.50;17.13;;;13.40;99.90;;;;;;4814663;29;20763;-84
2022/10/13 08:30:56;;;;;;;27.52;18.00;;;13.40;99.90;;;;;;4840715;29;20042;-84
2022/10/13 08:33:25;;;;;;;29.00;18.08;;;13.30;99.90;;;;;;4829808;29;20290;-85
2022/10/13 08:35:51;;;;;;;25.70;16.67;;;13.30;99.90;;;;;;4844880;29;20540;-84
2022/10/13 08:38:17;;;;;;;27.10;17.50;;;13.40;99.90;;;;;;4828173;29;20148;-85
2022/10/13 08:40:48;;;;;;;25.58;17.02;;;13.30;99.90;;;;;;4846119;29;20176;-85
2022/10/13 08:43:17;;;;;;;25.98;18.05;;;13.30;99.90;;;;;;4834427;29;20133;-85
2022/10/13 08:45:44;;;;;;;26.00;18.23;;;13.20;99.90;;;;;;4844983;29;20124;-85
2022/10/13 08:48:23;;;;;;;31.20;20.02;;;13.10;99.90;;;;;;4846627;29;20041;-85
2022/10/13 08:50:56;;;;;;;25.10;18.55;;;13.40;99.90;;;;;;4846112;29;20578;-85
2022/10/13 08:53:39;;;;;;;25.77;19.27;;;13.40;99.90;;;;;;4842928;29;20447;-85
2022/10/13 08:56:24;;;;;;;28.10;18.77;;;13.50;99.90;;;;;;4861257;29;20048;-85
2022/10/13 08:58:53;;;;;;;27.45;20.25;;;13.40;99.90;;;;;;4830245;29;20254;-84
2022/10/13 09:01:22;;;;;;;28.65;19.00;;;13.30;99.90;;;;;;4814377;29;20463;-85
2022/10/13 09:04:09;;;;;;;33.30;20.77;;;13.40;99.90;;;;;;4846607;29;20068;-85
2022/10/13 09:06:50;;;;;;;29.48;19.83;;;13.50;99.90;;;;;;4829748;29;20061;-85
2022/10/13 09:09:16;;;;;;;28.80;18.92;;;13.60;99.90;;;;;;4827232;29;20581;-85
2022/10/13 09:11:44;;;;;;;28.05;19.17;;;13.30;99.90;;;;;;4828907;29;20033;-85
2022/10/13 09:14:19;;;;;;;27.13;19.35;;;13.30;99.90;;;;;;4830994;29;20203;-85
2022/10/13 09:16:45;;;;;;;31.83;19.00;;;13.60;99.90;;;;;;4827141;29;20045;-85
2022/10/13 09:19:18;;;;;;;27.75;20.30;;;13.40;99.90;;;;;;4835390;29;20046;-85
2022/10/13 09:21:44;;;;;;;33.28;20.05;;;13.40;99.90;;;;;;4860525;29;20073;-85
2022/10/13 09:24:15;;;;;;;29.80;19.40;;;13.50;99.90;;;;;;4835682;29;20117;-85
2022/10/13 09:26:46;;;;;;;32.10;21.15;;;13.50;99.90;;;;;;4833803;29;20042;-85
2022/10/13 09:29:25;;;;;;;28.98;20.67;;;13.60;99.90;;;;;;4847328;29;20054;-85
2022/10/13 09:32:12;;;;;;;27.48;20.42;;;13.80;99.90;;;;;;4830899;29;20038;-86
2022/10/13 09:34:37;;;;;;;27.58;20.08;;;13.80;99.90;;;;;;4843270;29;20042;-85
2022/10/13 09:37:12;;;;;;;30.02;20.63;;;14.20;99.90;;;;;;4827202;29;20521;-86
2022/10/13 09:39:38;;;;;;;28.45;19.73;;;14.10;99.90;;;;;;4845971;29;20147;-85
2022/10/13 09:42:26;;;;;;;29.60;20.58;;;14.00;99.90;;;;;;4809909;29;20202;-86
2022/10/13 09:45:01;;;;;;;27.00;19.50;;;14.20;99.90;;;;;;4856163;29;20124;-87
2022/10/13 09:47:31;;;;;;;31.90;20.45;;;14.10;99.90;;;;;;4820901;29;20041;-86
2022/10/13 09:50:19;;;;;;;30.33;20.58;;;14.40;99.90;;;;;;4844905;29;20483;-86
2022/10/13 09:52:46;;;;;;;26.63;18.83;;;14.30;99.90;;;;;;4823216;29;20053;-86
2022/10/13 09:55:33;;;;;;;29.23;19.15;;;14.50;99.90;;;;;;4826436;29;20448;-86
2022/10/13 09:58:11;;;;;;;28.75;18.73;;;14.50;99.90;;;;;;4828699;29;20167;-86
2022/10/13 10:00:37;;;;;;;26.15;18.40;;;14.30;99.90;;;;;;4835072;29;20057;-87
2022/10/13 10:03:13;;;;;;;24.98;18.70;;;14.40;99.90;;;;;;4827881;29;20053;-87
2022/10/13 10:05:47;;;;;;;27.17;19.38;;;14.60;99.90;;;;;;4833473;29;20156;-86
2022/10/13 10:08:54;;;;;;;26.75;19.30;;;14.40;99.90;;;;;;4828714;29;20038;-86
2022/10/13 10:11:28;;;;;;;27.35;18.10;;;14.40;99.90;;;;;;4857957;29;20041;-86
2022/10/13 10:13:59;;;;;;;25.98;18.10;;;14.10;99.90;;;;;;4844814;29;20050;-86
2022/10/13 10:16:39;;;;;;;22.30;17.85;;;14.30;99.90;;;;;;4829646;29;20056;-86
2022/10/13 10:19:17;;;;;;;21.45;17.90;;;14.20;99.90;;;;;;4857363;29;20038;-86
2022/10/13 10:21:57;;;;;;;23.52;17.70;;;14.10;99.90;;;;;;4822953;29;20077;-86
2022/10/13 10:24:26;;;;;;;21.83;17.65;;;14.40;99.90;;;;;;4834434;29;20050;-86
2022/10/13 10:26:59;;;;;;;22.98;16.95;;;14.10;99.90;;;;;;4830850;29;20042;-86
2022/10/13 10:29:47;;;;;;;24.70;17.00;;;14.20;99.90;;;;;;4812482;29;20049;-86
2022/10/13 10:32:31;;;;;;;20.90;16.42;;;14.20;99.90;;;;;;4831434;29;20125;-86
2022/10/13 10:35:21;;;;;;;19.58;15.90;;;14.30;99.90;;;;;;4836764;29;20056;-85
2022/10/13 10:38:12;;;;;;;19.55;16.20;;;14.50;99.90;;;;;;4831793;29;20713;-85
2022/10/13 10:40:57;;;;;;;20.13;15.68;;;14.30;99.90;;;;;;4858736;29;20503;-85
2022/10/13 10:43:38;;;;;;;22.25;16.63;;;14.50;99.90;;;;;;4854907;29;20501;-85
2022/10/13 10:46:29;;;;;;;20.30;15.75;;;14.60;99.90;;;;;;4845652;29;20053;-85
2022/10/13 10:49:00;;;;;;;23.63;16.10;;;14.80;99.90;;;;;;4822247;29;20042;-85
2022/10/13 10:51:32;;;;;;;19.77;16.85;;;14.60;99.90;;;;;;4849459;29;20129;-85
2022/10/13 10:54:16;;;;;;;21.95;15.63;;;14.90;99.90;;;;;;4828780;29;20038;-85
2022/10/13 10:56:48;;;;;;;22.20;17.15;;;14.70;99.90;;;;;;4837334;29;20067;-85
2022/10/13 10:59:13;;;;;;;21.38;16.42;;;14.80;99.90;;;;;;4846260;29;20102;-85
2022/10/13 11:01:45;;;;;;;21.63;16.88;;;15.00;99.90;;;;;;4820175;29;20327;-85
2022/10/13 11:04:19;;;;;;;20.15;16.13;;;15.00;99.90;;;;;;4833019;29;20038;-85
2022/10/13 11:06:45;;;;;;;24.35;17.70;;;14.80;99.90;;;;;;4842562;29;20041;-86
2022/10/13 11:09:11;;;;;;;20.45;16.67;;;14.90;99.90;;;;;;4842824;29;20395;-85
2022/10/13 11:11:41;;;;;;;22.15;17.30;;;14.90;99.90;;;;;;4834147;29;20041;-85
2022/10/13 11:14:07;;;;;;;23.58;18.05;;;14.80;99.90;;;;;;4830460;29;20045;-86
2022/10/13 11:17:08;;;;;;;22.40;17.73;;;15.00;99.90;;;;;;4813345;29;20038;-86
2022/10/13 11:19:36;;;;;;;22.40;16.60;;;14.70;99.90;;;;;;4792679;29;20054;-85
2022/10/13 11:22:02;;;;;;;23.70;17.90;;;14.70;99.90;;;;;;4860848;29;20046;-85
2022/10/13 11:24:35;;;;;;;23.95;18.05;;;14.60;99.90;;;;;;4816333;29;20057;-86
2022/10/13 11:27:06;;;;;;;23.60;18.40;;;14.60;99.90;;;;;;4830777;29;20569;-86
2022/10/13 11:29:45;;;;;;;27.27;19.60;;;14.90;99.90;;;;;;4824502;29;20049;-85
2022/10/13 11:35:03;;;;;;;27.63;18.95;;;14.70;99.90;;;;;;4845874;29;20435;-86
2022/10/13 11:38:01;;;;;;;28.65;20.08;;;14.70;99.90;;;;;;4833291;29;20101;-86
2022/10/13 11:41:07;;;;;;;26.45;19.67;;;15.00;99.90;;;;;;4841410;29;20548;-85
2022/10/13 11:43:58;;;;;;;30.17;21.00;;;15.30;99.90;;;;;;4861917;29;20094;-85
2022/10/13 11:46:47;;;;;;;30.20;20.00;;;15.30;99.90;;;;;;4843382;29;20050;-87
2022/10/13 11:49:37;;;;;;;28.13;20.23;;;15.60;99.90;;;;;;4828075;29;20106;-86
2022/10/13 11:52:37;;;;;;;27.65;20.33;;;15.30;99.90;;;;;;4840925;29;20052;-86
2022/10/13 11:55:11;;;;;;;25.33;18.55;;;15.20;99.90;;;;;;4819542;29;20104;-87
2022/10/13 11:57:43;;;;;;;28.95;20.13;;;15.50;99.90;;;;;;4831146;29;20042;-85
2022/10/13 12:00:15;;;;;;;26.17;19.88;;;15.60;99.90;;;;;;4829257;29;20460;-86
2022/10/13 12:02:50;;;;;;;26.42;20.35;;;15.20;99.90;;;;;;4831724;29;20098;-85
2022/10/13 12:05:26;;;;;;;25.20;19.63;;;15.10;99.90;;;;;;4846138;29;20041;-86
2022/10/13 12:07:55;;;;;;;29.35;20.00;;;15.40;99.90;;;;;;4859725;29;20112;-85
2022/10/13 12:10:32;;;;;;;26.48;20.27;;;15.50;99.90;;;;;;4845286;29;20076;-86
2022/10/13 12:12:58;;;;;;;27.33;19.98;;;15.50;99.90;;;;;;4814201;29;20048;-85
2022/10/13 12:15:34;;;;;;;25.15;20.17;;;15.40;99.90;;;;;;4857937;29;20046;-86
2022/10/13 12:18:00;;;;;;;29.10;20.08;;;15.50;99.90;;;;;;4845656;29;20141;-86
2022/10/13 12:20:29;;;;;;;26.25;19.27;;;15.40;99.90;;;;;;4845861;29;20120;-85
2022/10/13 12:22:55;;;;;;;26.98;19.13;;;15.50;99.90;;;;;;4845131;29;20114;-85
2022/10/13 12:25:24;;;;;;;26.52;20.40;;;15.40;99.90;;;;;;4822541;29;20054;-85
2022/10/13 12:27:53;;;;;;;26.48;21.23;;;15.20;99.90;;;;;;4858378;29;20076;-86
2022/10/13 12:30:24;;;;;;;25.45;21.77;;;15.00;99.90;;;;;;4846020;29;20042;-86
2022/10/13 12:32:53;;;;;;;24.88;20.63;;;15.20;99.90;;;;;;4837087;29;20046;-86
2022/10/13 12:35:28;;;;;;;27.13;20.17;;;15.20;99.90;;;;;;4849351;29;20705;-85
2022/10/13 12:37:55;;;;;;;25.90;19.38;;;15.10;99.90;;;;;;4831125;29;20057;-86
2022/10/13 12:40:21;;;;;;;25.00;19.40;;;15.00;99.90;;;;;;4823662;29;20086;-85
2022/10/13 12:42:48;;;;;;;25.77;18.88;;;15.20;99.90;;;;;;4846101;29;20046;-85
2022/10/13 12:45:20;;;;;;;24.58;19.10;;;15.00;99.90;;;;;;4845427;29;20042;-85
2022/10/13 12:47:51;;;;;;;25.67;18.63;;;15.10;99.90;;;;;;4832572;29;20345;-86
2022/10/13 12:50:29;;;;;;;22.92;18.23;;;14.90;99.90;;;;;;4842029;29;20269;-85